sensor_id;sensor_type;location;lat;lon;timestamp;P1;durP1;ratioP1;P2;durP2;ratioP2
64543;SDS011;50936;51.660;5.616;2023-12-07T00:00:31;4.75;;;2.47;;
64543;SDS011;50936;51.660;5.616;2023-12-07T00:03:18;5.20;;;2.78;;
64543;SDS011;50936;51.660;5.616;2023-12-07T00:06:05;5.10;;;2.63;;
64543;SDS011;50936;51.660;5.616;2023-12-07T00:08:53;4.35;;;2.42;;
64543;SDS011;50936;51.660;5.616;2023-12-07T00:11:40;6.10;;;3.05;;
64543;SDS011;50936;51.660;5.616;2023-12-07T00:14:27;5.88;;;2.85;;
64543;SDS011;50936;51.660;5.616;2023-12-07T00:17:14;4.88;;;2.67;;
64543;SDS011;50936;51.660;5.616;2023-12-07T00:20:02;4.97;;;2.80;;
64543;SDS011;50936;51.660;5.616;2023-12-07T00:22:50;5.18;;;2.83;;
64543;SDS011;50936;51.660;5.616;2023-12-07T00:25:38;5.38;;;2.78;;
64543;SDS011;50936;51.660;5.616;2023-12-07T00:28:25;4.03;;;2.40;;
64543;SDS011;50936;51.660;5.616;2023-12-07T00:31:13;4.53;;;2.65;;
64543;SDS011;50936;51.660;5.616;2023-12-07T00:34:00;5.70;;;2.85;;
64543;SDS011;50936;51.660;5.616;2023-12-07T00:36:47;4.28;;;2.47;;
64543;SDS011;50936;51.660;5.616;2023-12-07T00:39:34;4.85;;;2.72;;
64543;SDS011;50936;51.660;5.616;2023-12-07T00:42:21;4.15;;;2.50;;
64543;SDS011;50936;51.660;5.616;2023-12-07T00:45:09;4.97;;;2.55;;
64543;SDS011;50936;51.660;5.616;2023-12-07T00:47:58;4.95;;;2.60;;
64543;SDS011;50936;51.660;5.616;2023-12-07T00:50:46;4.45;;;2.65;;
64543;SDS011;50936;51.660;5.616;2023-12-07T00:53:34;3.65;;;2.45;;
64543;SDS011;50936;51.660;5.616;2023-12-07T00:56:21;4.30;;;2.45;;
64543;SDS011;50936;51.660;5.616;2023-12-07T00:59:08;4.82;;;2.28;;
64543;SDS011;50936;51.660;5.616;2023-12-07T01:01:55;4.80;;;2.47;;
64543;SDS011;50936;51.660;5.616;2023-12-07T01:04:42;3.85;;;2.60;;
64543;SDS011;50936;51.660;5.616;2023-12-07T01:07:30;5.43;;;2.50;;
64543;SDS011;50936;51.660;5.616;2023-12-07T01:10:18;4.18;;;2.50;;
64543;SDS011;50936;51.660;5.616;2023-12-07T01:13:05;5.85;;;2.45;;
64543;SDS011;50936;51.660;5.616;2023-12-07T01:15:53;4.25;;;2.60;;
64543;SDS011;50936;51.660;5.616;2023-12-07T01:18:40;4.50;;;2.60;;
64543;SDS011;50936;51.660;5.616;2023-12-07T01:21:27;4.35;;;2.70;;
64543;SDS011;50936;51.660;5.616;2023-12-07T01:24:15;3.58;;;2.20;;
64543;SDS011;50936;51.660;5.616;2023-12-07T01:27:02;4.03;;;2.60;;
64543;SDS011;50936;51.660;5.616;2023-12-07T01:29:50;4.70;;;2.42;;
64543;SDS011;50936;51.660;5.616;2023-12-07T01:32:37;4.30;;;2.42;;
64543;SDS011;50936;51.660;5.616;2023-12-07T01:35:24;4.82;;;2.53;;
64543;SDS011;50936;51.660;5.616;2023-12-07T01:38:11;4.47;;;2.90;;
64543;SDS011;50936;51.660;5.616;2023-12-07T01:40:59;3.50;;;2.42;;
64543;SDS011;50936;51.660;5.616;2023-12-07T01:43:46;3.33;;;1.80;;
64543;SDS011;50936;51.660;5.616;2023-12-07T01:46:34;4.20;;;2.30;;
64543;SDS011;50936;51.660;5.616;2023-12-07T01:49:22;3.80;;;2.35;;
64543;SDS011;50936;51.660;5.616;2023-12-07T01:52:09;3.72;;;2.30;;
64543;SDS011;50936;51.660;5.616;2023-12-07T01:54:58;4.63;;;2.53;;
64543;SDS011;50936;51.660;5.616;2023-12-07T01:57:45;3.50;;;2.28;;
64543;SDS011;50936;51.660;5.616;2023-12-07T02:00:33;3.30;;;2.20;;
64543;SDS011;50936;51.660;5.616;2023-12-07T02:03:21;4.07;;;2.00;;
64543;SDS011;50936;51.660;5.616;2023-12-07T02:06:10;4.00;;;2.50;;
64543;SDS011;50936;51.660;5.616;2023-12-07T02:08:57;4.53;;;2.40;;
64543;SDS011;50936;51.660;5.616;2023-12-07T02:11:44;4.22;;;2.42;;
64543;SDS011;50936;51.660;5.616;2023-12-07T02:14:31;4.88;;;2.88;;
64543;SDS011;50936;51.660;5.616;2023-12-07T02:17:27;3.80;;;2.33;;
64543;SDS011;50936;51.660;5.616;2023-12-07T02:20:30;4.05;;;2.50;;
64543;SDS011;50936;51.660;5.616;2023-12-07T02:23:26;4.60;;;2.10;;
64543;SDS011;50936;51.660;5.616;2023-12-07T02:26:35;3.78;;;2.25;;
64543;SDS011;50936;51.660;5.616;2023-12-07T02:29:24;4.18;;;2.35;;
64543;SDS011;50936;51.660;5.616;2023-12-07T02:32:11;4.30;;;2.53;;
64543;SDS011;50936;51.660;5.616;2023-12-07T02:34:58;3.80;;;2.20;;
64543;SDS011;50936;51.660;5.616;2023-12-07T02:37:49;3.58;;;2.30;;
64543;SDS011;50936;51.660;5.616;2023-12-07T02:40:39;4.20;;;2.60;;
64543;SDS011;50936;51.660;5.616;2023-12-07T02:43:28;4.13;;;2.42;;
64543;SDS011;50936;51.660;5.616;2023-12-07T02:46:16;4.32;;;2.40;;
64543;SDS011;50936;51.660;5.616;2023-12-07T02:49:03;4.18;;;2.63;;
64543;SDS011;50936;51.660;5.616;2023-12-07T02:51:51;3.47;;;2.35;;
64543;SDS011;50936;51.660;5.616;2023-12-07T02:54:38;4.35;;;2.60;;
64543;SDS011;50936;51.660;5.616;2023-12-07T02:57:25;4.40;;;2.72;;
64543;SDS011;50936;51.660;5.616;2023-12-07T03:00:12;4.32;;;2.30;;
64543;SDS011;50936;51.660;5.616;2023-12-07T03:03:01;3.55;;;2.13;;
64543;SDS011;50936;51.660;5.616;2023-12-07T03:05:48;4.20;;;2.83;;
64543;SDS011;50936;51.660;5.616;2023-12-07T03:08:35;3.92;;;2.67;;
64543;SDS011;50936;51.660;5.616;2023-12-07T03:11:23;3.63;;;2.30;;
64543;SDS011;50936;51.660;5.616;2023-12-07T03:14:11;4.50;;;2.72;;
64543;SDS011;50936;51.660;5.616;2023-12-07T03:16:58;3.95;;;2.40;;
64543;SDS011;50936;51.660;5.616;2023-12-07T03:19:45;3.72;;;2.60;;
64543;SDS011;50936;51.660;5.616;2023-12-07T03:22:32;3.53;;;2.20;;
64543;SDS011;50936;51.660;5.616;2023-12-07T03:25:20;3.58;;;2.30;;
64543;SDS011;50936;51.660;5.616;2023-12-07T03:28:08;4.55;;;2.90;;
64543;SDS011;50936;51.660;5.616;2023-12-07T03:30:55;3.40;;;2.17;;
64543;SDS011;50936;51.660;5.616;2023-12-07T03:33:42;4.25;;;2.80;;
64543;SDS011;50936;51.660;5.616;2023-12-07T03:36:29;3.95;;;2.58;;
64543;SDS011;50936;51.660;5.616;2023-12-07T03:39:19;4.20;;;2.58;;
64543;SDS011;50936;51.660;5.616;2023-12-07T03:42:08;4.95;;;2.65;;
64543;SDS011;50936;51.660;5.616;2023-12-07T03:45:15;4.53;;;2.85;;
64543;SDS011;50936;51.660;5.616;2023-12-07T03:48:02;4.18;;;2.63;;
64543;SDS011;50936;51.660;5.616;2023-12-07T03:50:50;3.65;;;2.50;;
64543;SDS011;50936;51.660;5.616;2023-12-07T03:53:38;3.65;;;2.28;;
64543;SDS011;50936;51.660;5.616;2023-12-07T03:56:25;3.97;;;2.47;;
64543;SDS011;50936;51.660;5.616;2023-12-07T03:59:14;3.88;;;2.70;;
64543;SDS011;50936;51.660;5.616;2023-12-07T04:02:01;4.20;;;2.63;;
64543;SDS011;50936;51.660;5.616;2023-12-07T04:04:49;3.72;;;2.40;;
64543;SDS011;50936;51.660;5.616;2023-12-07T04:07:36;5.78;;;2.50;;
64543;SDS011;50936;51.660;5.616;2023-12-07T04:10:23;3.95;;;2.50;;
64543;SDS011;50936;51.660;5.616;2023-12-07T04:13:11;3.47;;;2.60;;
64543;SDS011;50936;51.660;5.616;2023-12-07T04:15:58;3.95;;;2.42;;
64543;SDS011;50936;51.660;5.616;2023-12-07T04:18:46;3.72;;;2.47;;
64543;SDS011;50936;51.660;5.616;2023-12-07T04:21:33;3.95;;;2.80;;
64543;SDS011;50936;51.660;5.616;2023-12-07T04:24:20;3.60;;;2.50;;
64543;SDS011;50936;51.660;5.616;2023-12-07T04:27:07;4.35;;;2.38;;
64543;SDS011;50936;51.660;5.616;2023-12-07T04:29:54;4.28;;;2.45;;
64543;SDS011;50936;51.660;5.616;2023-12-07T04:32:42;4.50;;;2.95;;
64543;SDS011;50936;51.660;5.616;2023-12-07T04:35:29;4.00;;;2.38;;
64543;SDS011;50936;51.660;5.616;2023-12-07T04:38:17;4.63;;;2.70;;
64543;SDS011;50936;51.660;5.616;2023-12-07T04:41:05;4.60;;;3.00;;
64543;SDS011;50936;51.660;5.616;2023-12-07T04:43:52;7.68;;;3.05;;
64543;SDS011;50936;51.660;5.616;2023-12-07T04:46:39;6.15;;;2.70;;
64543;SDS011;50936;51.660;5.616;2023-12-07T04:49:27;4.53;;;2.92;;
64543;SDS011;50936;51.660;5.616;2023-12-07T04:52:14;6.90;;;2.80;;
64543;SDS011;50936;51.660;5.616;2023-12-07T04:55:01;5.65;;;2.30;;
64543;SDS011;50936;51.660;5.616;2023-12-07T04:57:49;5.07;;;2.75;;
64543;SDS011;50936;51.660;5.616;2023-12-07T05:00:36;5.68;;;2.85;;
64543;SDS011;50936;51.660;5.616;2023-12-07T05:03:24;4.97;;;2.70;;
64543;SDS011;50936;51.660;5.616;2023-12-07T05:06:11;4.65;;;2.65;;
64543;SDS011;50936;51.660;5.616;2023-12-07T05:08:58;5.03;;;2.40;;
64543;SDS011;50936;51.660;5.616;2023-12-07T05:11:45;4.50;;;2.60;;
64543;SDS011;50936;51.660;5.616;2023-12-07T05:14:33;4.57;;;2.78;;
64543;SDS011;50936;51.660;5.616;2023-12-07T05:17:21;5.00;;;2.97;;
64543;SDS011;50936;51.660;5.616;2023-12-07T05:20:08;4.20;;;2.72;;
64543;SDS011;50936;51.660;5.616;2023-12-07T05:22:56;4.53;;;2.75;;
64543;SDS011;50936;51.660;5.616;2023-12-07T05:25:43;5.82;;;2.80;;
64543;SDS011;50936;51.660;5.616;2023-12-07T05:28:31;3.45;;;2.60;;
64543;SDS011;50936;51.660;5.616;2023-12-07T05:31:20;4.50;;;2.80;;
64543;SDS011;50936;51.660;5.616;2023-12-07T05:34:08;4.22;;;2.70;;
64543;SDS011;50936;51.660;5.616;2023-12-07T05:36:55;4.80;;;2.60;;
64543;SDS011;50936;51.660;5.616;2023-12-07T05:39:42;4.88;;;2.53;;
64543;SDS011;50936;51.660;5.616;2023-12-07T05:42:29;4.00;;;2.72;;
64543;SDS011;50936;51.660;5.616;2023-12-07T05:45:16;5.03;;;3.00;;
64543;SDS011;50936;51.660;5.616;2023-12-07T05:48:03;5.35;;;2.85;;
64543;SDS011;50936;51.660;5.616;2023-12-07T05:50:51;3.92;;;2.78;;
64543;SDS011;50936;51.660;5.616;2023-12-07T05:53:38;4.47;;;2.45;;
64543;SDS011;50936;51.660;5.616;2023-12-07T05:56:25;4.55;;;2.85;;
64543;SDS011;50936;51.660;5.616;2023-12-07T05:59:13;5.13;;;2.55;;
64543;SDS011;50936;51.660;5.616;2023-12-07T06:02:00;4.07;;;2.70;;
64543;SDS011;50936;51.660;5.616;2023-12-07T06:04:49;4.32;;;2.90;;
64543;SDS011;50936;51.660;5.616;2023-12-07T06:07:36;4.18;;;2.65;;
64543;SDS011;50936;51.660;5.616;2023-12-07T06:10:24;6.28;;;2.63;;
64543;SDS011;50936;51.660;5.616;2023-12-07T06:13:12;6.82;;;2.90;;
64543;SDS011;50936;51.660;5.616;2023-12-07T06:16:00;6.18;;;2.90;;
64543;SDS011;50936;51.660;5.616;2023-12-07T06:18:49;5.28;;;2.78;;
64543;SDS011;50936;51.660;5.616;2023-12-07T06:21:37;4.47;;;2.65;;
64543;SDS011;50936;51.660;5.616;2023-12-07T06:24:24;6.07;;;2.63;;
64543;SDS011;50936;51.660;5.616;2023-12-07T06:27:11;8.07;;;2.83;;
64543;SDS011;50936;51.660;5.616;2023-12-07T06:29:59;6.95;;;2.42;;
64543;SDS011;50936;51.660;5.616;2023-12-07T06:32:46;4.93;;;2.80;;
64543;SDS011;50936;51.660;5.616;2023-12-07T06:35:33;6.03;;;2.70;;
64543;SDS011;50936;51.660;5.616;2023-12-07T06:38:21;4.53;;;2.38;;
64543;SDS011;50936;51.660;5.616;2023-12-07T06:41:09;6.45;;;3.00;;
64543;SDS011;50936;51.660;5.616;2023-12-07T06:43:56;4.50;;;2.75;;
64543;SDS011;50936;51.660;5.616;2023-12-07T06:46:45;7.68;;;2.60;;
64543;SDS011;50936;51.660;5.616;2023-12-07T06:49:32;5.70;;;2.60;;
64543;SDS011;50936;51.660;5.616;2023-12-07T06:55:24;7.78;;;2.78;;
64543;SDS011;50936;51.660;5.616;2023-12-07T06:58:11;8.98;;;2.25;;
64543;SDS011;50936;51.660;5.616;2023-12-07T07:00:58;4.57;;;2.45;;
64543;SDS011;50936;51.660;5.616;2023-12-07T07:03:46;9.25;;;2.70;;
64543;SDS011;50936;51.660;5.616;2023-12-07T07:06:33;7.47;;;2.35;;
64543;SDS011;50936;51.660;5.616;2023-12-07T07:09:21;6.53;;;2.50;;
64543;SDS011;50936;51.660;5.616;2023-12-07T07:12:08;5.75;;;2.15;;
64543;SDS011;50936;51.660;5.616;2023-12-07T07:14:56;6.90;;;2.58;;
64543;SDS011;50936;51.660;5.616;2023-12-07T07:17:43;6.50;;;2.75;;
64543;SDS011;50936;51.660;5.616;2023-12-07T07:20:30;5.85;;;2.65;;
64543;SDS011;50936;51.660;5.616;2023-12-07T07:23:17;5.55;;;2.33;;
64543;SDS011;50936;51.660;5.616;2023-12-07T07:26:04;4.85;;;2.30;;
64543;SDS011;50936;51.660;5.616;2023-12-07T07:28:52;6.38;;;2.58;;
64543;SDS011;50936;51.660;5.616;2023-12-07T07:31:39;7.72;;;2.42;;
64543;SDS011;50936;51.660;5.616;2023-12-07T07:34:26;3.97;;;2.30;;
64543;SDS011;50936;51.660;5.616;2023-12-07T07:37:14;4.95;;;2.42;;
64543;SDS011;50936;51.660;5.616;2023-12-07T07:40:01;6.18;;;2.17;;
64543;SDS011;50936;51.660;5.616;2023-12-07T07:42:53;5.10;;;2.63;;
64543;SDS011;50936;51.660;5.616;2023-12-07T07:45:40;5.93;;;2.53;;
64543;SDS011;50936;51.660;5.616;2023-12-07T07:48:27;7.85;;;2.42;;
64543;SDS011;50936;51.660;5.616;2023-12-07T07:51:15;6.93;;;2.50;;
64543;SDS011;50936;51.660;5.616;2023-12-07T07:54:02;6.82;;;2.72;;
64543;SDS011;50936;51.660;5.616;2023-12-07T07:56:49;5.65;;;2.42;;
64543;SDS011;50936;51.660;5.616;2023-12-07T07:59:36;4.82;;;2.70;;
64543;SDS011;50936;51.660;5.616;2023-12-07T08:02:23;7.20;;;3.30;;
64543;SDS011;50936;51.660;5.616;2023-12-07T08:05:11;8.60;;;3.00;;
64543;SDS011;50936;51.660;5.616;2023-12-07T08:07:59;8.30;;;3.20;;
64543;SDS011;50936;51.660;5.616;2023-12-07T08:10:46;7.95;;;3.33;;
64543;SDS011;50936;51.660;5.616;2023-12-07T08:13:42;8.07;;;3.17;;
64543;SDS011;50936;51.660;5.616;2023-12-07T08:16:29;8.40;;;2.90;;
64543;SDS011;50936;51.660;5.616;2023-12-07T08:19:16;11.25;;;3.53;;
64543;SDS011;50936;51.660;5.616;2023-12-07T08:22:03;14.82;;;4.13;;
64543;SDS011;50936;51.660;5.616;2023-12-07T08:24:51;11.23;;;4.10;;
64543;SDS011;50936;51.660;5.616;2023-12-07T08:27:54;9.95;;;3.67;;
64543;SDS011;50936;51.660;5.616;2023-12-07T08:30:41;15.00;;;8.90;;
64543;SDS011;50936;51.660;5.616;2023-12-07T08:33:28;14.68;;;6.15;;
64543;SDS011;50936;51.660;5.616;2023-12-07T08:36:15;13.07;;;5.32;;
64543;SDS011;50936;51.660;5.616;2023-12-07T08:39:03;13.85;;;6.47;;
64543;SDS011;50936;51.660;5.616;2023-12-07T08:41:50;11.13;;;4.15;;
64543;SDS011;50936;51.660;5.616;2023-12-07T08:44:38;10.23;;;4.75;;
64543;SDS011;50936;51.660;5.616;2023-12-07T08:47:25;11.60;;;4.60;;
64543;SDS011;50936;51.660;5.616;2023-12-07T08:50:14;10.02;;;4.35;;
64543;SDS011;50936;51.660;5.616;2023-12-07T08:53:01;9.65;;;4.50;;
64543;SDS011;50936;51.660;5.616;2023-12-07T08:55:51;8.43;;;4.70;;
64543;SDS011;50936;51.660;5.616;2023-12-07T08:58:40;11.68;;;4.45;;
64543;SDS011;50936;51.660;5.616;2023-12-07T09:01:28;11.50;;;4.30;;
64543;SDS011;50936;51.660;5.616;2023-12-07T09:04:19;8.43;;;4.32;;
64543;SDS011;50936;51.660;5.616;2023-12-07T09:07:06;9.60;;;4.65;;
64543;SDS011;50936;51.660;5.616;2023-12-07T09:09:54;10.68;;;4.28;;
64543;SDS011;50936;51.660;5.616;2023-12-07T09:12:41;9.73;;;4.28;;
64543;SDS011;50936;51.660;5.616;2023-12-07T09:15:28;9.52;;;4.47;;
64543;SDS011;50936;51.660;5.616;2023-12-07T09:18:15;10.65;;;4.35;;
64543;SDS011;50936;51.660;5.616;2023-12-07T09:21:03;10.70;;;4.80;;
64543;SDS011;50936;51.660;5.616;2023-12-07T09:23:50;11.10;;;4.53;;
64543;SDS011;50936;51.660;5.616;2023-12-07T09:26:39;10.20;;;4.38;;
64543;SDS011;50936;51.660;5.616;2023-12-07T09:29:26;11.65;;;4.25;;
64543;SDS011;50936;51.660;5.616;2023-12-07T09:32:13;9.32;;;4.07;;
64543;SDS011;50936;51.660;5.616;2023-12-07T09:35:03;10.35;;;4.55;;
64543;SDS011;50936;51.660;5.616;2023-12-07T09:37:54;11.07;;;4.30;;
64543;SDS011;50936;51.660;5.616;2023-12-07T09:40:41;10.27;;;4.65;;
64543;SDS011;50936;51.660;5.616;2023-12-07T09:43:28;11.52;;;4.40;;
64543;SDS011;50936;51.660;5.616;2023-12-07T09:46:16;10.43;;;4.93;;
64543;SDS011;50936;51.660;5.616;2023-12-07T09:49:05;10.30;;;4.57;;
64543;SDS011;50936;51.660;5.616;2023-12-07T09:51:53;11.45;;;4.60;;
64543;SDS011;50936;51.660;5.616;2023-12-07T09:54:44;9.73;;;4.57;;
64543;SDS011;50936;51.660;5.616;2023-12-07T09:57:32;10.73;;;4.40;;
64543;SDS011;50936;51.660;5.616;2023-12-07T10:00:21;12.07;;;4.95;;
64543;SDS011;50936;51.660;5.616;2023-12-07T10:03:09;8.90;;;4.30;;
64543;SDS011;50936;51.660;5.616;2023-12-07T10:06:11;8.57;;;4.10;;
64543;SDS011;50936;51.660;5.616;2023-12-07T10:09:02;10.93;;;4.47;;
64543;SDS011;50936;51.660;5.616;2023-12-07T10:11:57;8.10;;;3.65;;
64543;SDS011;50936;51.660;5.616;2023-12-07T10:14:52;9.88;;;4.13;;
64543;SDS011;50936;51.660;5.616;2023-12-07T10:17:45;9.75;;;3.70;;
64543;SDS011;50936;51.660;5.616;2023-12-07T10:20:36;10.48;;;4.55;;
64543;SDS011;50936;51.660;5.616;2023-12-07T10:23:32;9.00;;;4.07;;
64543;SDS011;50936;51.660;5.616;2023-12-07T10:26:20;9.55;;;3.80;;
64543;SDS011;50936;51.660;5.616;2023-12-07T10:29:08;10.23;;;4.07;;
64543;SDS011;50936;51.660;5.616;2023-12-07T10:32:12;10.90;;;4.32;;
64543;SDS011;50936;51.660;5.616;2023-12-07T10:35:00;9.25;;;3.85;;
64543;SDS011;50936;51.660;5.616;2023-12-07T10:37:48;11.23;;;4.45;;
64543;SDS011;50936;51.660;5.616;2023-12-07T10:40:35;9.30;;;3.85;;
64543;SDS011;50936;51.660;5.616;2023-12-07T10:43:23;9.38;;;3.63;;
64543;SDS011;50936;51.660;5.616;2023-12-07T10:46:11;11.02;;;4.85;;
64543;SDS011;50936;51.660;5.616;2023-12-07T10:49:05;9.65;;;3.55;;
64543;SDS011;50936;51.660;5.616;2023-12-07T10:52:15;8.90;;;4.00;;
64543;SDS011;50936;51.660;5.616;2023-12-07T10:55:13;10.45;;;4.50;;
64543;SDS011;50936;51.660;5.616;2023-12-07T10:58:06;7.55;;;3.83;;
64543;SDS011;50936;51.660;5.616;2023-12-07T11:00:57;8.52;;;3.80;;
64543;SDS011;50936;51.660;5.616;2023-12-07T11:03:46;10.50;;;3.75;;
64543;SDS011;50936;51.660;5.616;2023-12-07T11:06:39;10.65;;;4.28;;
64543;SDS011;50936;51.660;5.616;2023-12-07T11:09:30;8.88;;;4.00;;
64543;SDS011;50936;51.660;5.616;2023-12-07T11:12:31;9.52;;;3.83;;
64543;SDS011;50936;51.660;5.616;2023-12-07T11:15:33;9.93;;;3.50;;
64543;SDS011;50936;51.660;5.616;2023-12-07T11:18:21;7.22;;;3.80;;
64543;SDS011;50936;51.660;5.616;2023-12-07T11:21:08;8.77;;;3.67;;
64543;SDS011;50936;51.660;5.616;2023-12-07T11:24:00;9.43;;;3.88;;
64543;SDS011;50936;51.660;5.616;2023-12-07T11:26:54;7.25;;;3.50;;
64543;SDS011;50936;51.660;5.616;2023-12-07T11:29:41;6.68;;;3.35;;
64543;SDS011;50936;51.660;5.616;2023-12-07T11:32:29;9.75;;;3.38;;
64543;SDS011;50936;51.660;5.616;2023-12-07T11:35:16;8.32;;;3.70;;
64543;SDS011;50936;51.660;5.616;2023-12-07T11:38:07;7.88;;;3.40;;
64543;SDS011;50936;51.660;5.616;2023-12-07T11:40:59;8.73;;;3.70;;
64543;SDS011;50936;51.660;5.616;2023-12-07T11:43:46;8.88;;;3.15;;
64543;SDS011;50936;51.660;5.616;2023-12-07T11:46:34;8.18;;;3.50;;
64543;SDS011;50936;51.660;5.616;2023-12-07T11:49:21;7.50;;;3.42;;
64543;SDS011;50936;51.660;5.616;2023-12-07T11:52:21;7.53;;;3.63;;
64543;SDS011;50936;51.660;5.616;2023-12-07T11:55:08;9.00;;;3.80;;
64543;SDS011;50936;51.660;5.616;2023-12-07T11:57:58;7.70;;;3.47;;
64543;SDS011;50936;51.660;5.616;2023-12-07T12:00:46;9.27;;;3.85;;
64543;SDS011;50936;51.660;5.616;2023-12-07T12:03:34;9.32;;;3.40;;
64543;SDS011;50936;51.660;5.616;2023-12-07T12:06:21;6.70;;;3.22;;
64543;SDS011;50936;51.660;5.616;2023-12-07T12:09:14;7.88;;;3.78;;
64543;SDS011;50936;51.660;5.616;2023-12-07T12:12:15;7.25;;;3.70;;
64543;SDS011;50936;51.660;5.616;2023-12-07T12:15:03;7.80;;;3.08;;
64543;SDS011;50936;51.660;5.616;2023-12-07T12:17:51;7.18;;;3.50;;
64543;SDS011;50936;51.660;5.616;2023-12-07T12:20:39;6.95;;;3.28;;
64543;SDS011;50936;51.660;5.616;2023-12-07T12:23:26;7.45;;;2.92;;
64543;SDS011;50936;51.660;5.616;2023-12-07T12:26:15;5.57;;;3.28;;
64543;SDS011;50936;51.660;5.616;2023-12-07T12:29:05;6.47;;;3.10;;
64543;SDS011;50936;51.660;5.616;2023-12-07T12:32:05;9.35;;;3.70;;
64543;SDS011;50936;51.660;5.616;2023-12-07T12:34:55;6.72;;;3.50;;
64543;SDS011;50936;51.660;5.616;2023-12-07T12:37:46;6.20;;;3.05;;
64543;SDS011;50936;51.660;5.616;2023-12-07T12:40:35;6.03;;;2.95;;
64543;SDS011;50936;51.660;5.616;2023-12-07T12:43:22;6.63;;;3.08;;
64543;SDS011;50936;51.660;5.616;2023-12-07T12:46:09;8.73;;;3.10;;
64543;SDS011;50936;51.660;5.616;2023-12-07T12:48:59;7.72;;;3.25;;
64543;SDS011;50936;51.660;5.616;2023-12-07T12:51:47;9.13;;;3.60;;
64543;SDS011;50936;51.660;5.616;2023-12-07T12:54:35;7.20;;;3.20;;
64543;SDS011;50936;51.660;5.616;2023-12-07T12:57:23;9.20;;;4.32;;
64543;SDS011;50936;51.660;5.616;2023-12-07T13:00:11;7.70;;;3.67;;
64543;SDS011;50936;51.660;5.616;2023-12-07T13:03:00;9.75;;;3.42;;
64543;SDS011;50936;51.660;5.616;2023-12-07T13:05:50;7.07;;;3.90;;
64543;SDS011;50936;51.660;5.616;2023-12-07T13:08:37;8.25;;;3.40;;
64543;SDS011;50936;51.660;5.616;2023-12-07T13:11:24;5.65;;;3.33;;
64543;SDS011;50936;51.660;5.616;2023-12-07T13:14:12;5.85;;;3.30;;
64543;SDS011;50936;51.660;5.616;2023-12-07T13:17:01;7.88;;;3.50;;
64543;SDS011;50936;51.660;5.616;2023-12-07T13:19:50;4.45;;;2.95;;
64543;SDS011;50936;51.660;5.616;2023-12-07T13:22:38;6.35;;;3.58;;
64543;SDS011;50936;51.660;5.616;2023-12-07T13:25:25;7.22;;;3.53;;
64543;SDS011;50936;51.660;5.616;2023-12-07T13:28:12;6.57;;;3.40;;
64543;SDS011;50936;51.660;5.616;2023-12-07T13:30:59;6.20;;;3.00;;
64543;SDS011;50936;51.660;5.616;2023-12-07T13:33:47;7.05;;;3.17;;
64543;SDS011;50936;51.660;5.616;2023-12-07T13:36:43;5.47;;;3.13;;
64543;SDS011;50936;51.660;5.616;2023-12-07T13:39:30;5.97;;;3.25;;
64543;SDS011;50936;51.660;5.616;2023-12-07T13:42:18;7.88;;;3.38;;
64543;SDS011;50936;51.660;5.616;2023-12-07T13:45:05;4.95;;;3.00;;
64543;SDS011;50936;51.660;5.616;2023-12-07T13:47:55;6.93;;;3.10;;
64543;SDS011;50936;51.660;5.616;2023-12-07T13:50:42;5.40;;;3.10;;
64543;SDS011;50936;51.660;5.616;2023-12-07T13:53:29;5.95;;;3.13;;
64543;SDS011;50936;51.660;5.616;2023-12-07T13:56:17;5.60;;;2.83;;
64543;SDS011;50936;51.660;5.616;2023-12-07T13:59:04;5.90;;;3.38;;
64543;SDS011;50936;51.660;5.616;2023-12-07T14:01:54;6.35;;;3.00;;
64543;SDS011;50936;51.660;5.616;2023-12-07T14:04:42;5.53;;;3.25;;
64543;SDS011;50936;51.660;5.616;2023-12-07T14:07:30;6.63;;;3.28;;
64543;SDS011;50936;51.660;5.616;2023-12-07T14:10:17;5.35;;;3.13;;
64543;SDS011;50936;51.660;5.616;2023-12-07T14:13:05;4.88;;;3.10;;
64543;SDS011;50936;51.660;5.616;2023-12-07T14:15:56;5.43;;;3.10;;
64543;SDS011;50936;51.660;5.616;2023-12-07T14:18:55;6.45;;;2.88;;
64543;SDS011;50936;51.660;5.616;2023-12-07T14:22:00;6.28;;;3.35;;
64543;SDS011;50936;51.660;5.616;2023-12-07T14:24:48;7.40;;;3.15;;
64543;SDS011;50936;51.660;5.616;2023-12-07T14:27:35;4.43;;;2.60;;
64543;SDS011;50936;51.660;5.616;2023-12-07T14:30:22;6.30;;;3.63;;
64543;SDS011;50936;51.660;5.616;2023-12-07T14:33:09;6.03;;;3.38;;
64543;SDS011;50936;51.660;5.616;2023-12-07T14:35:57;5.82;;;2.95;;
64543;SDS011;50936;51.660;5.616;2023-12-07T14:38:44;7.15;;;3.13;;
64543;SDS011;50936;51.660;5.616;2023-12-07T14:41:32;5.38;;;3.17;;
64543;SDS011;50936;51.660;5.616;2023-12-07T14:44:19;5.38;;;3.05;;
64543;SDS011;50936;51.660;5.616;2023-12-07T14:47:15;5.63;;;3.38;;
64543;SDS011;50936;51.660;5.616;2023-12-07T14:50:02;4.97;;;2.85;;
64543;SDS011;50936;51.660;5.616;2023-12-07T14:52:51;5.50;;;3.00;;
64543;SDS011;50936;51.660;5.616;2023-12-07T14:55:38;4.88;;;2.88;;
64543;SDS011;50936;51.660;5.616;2023-12-07T14:58:25;4.97;;;3.10;;
64543;SDS011;50936;51.660;5.616;2023-12-07T15:01:12;4.40;;;3.10;;
64543;SDS011;50936;51.660;5.616;2023-12-07T15:04:01;5.05;;;3.10;;
64543;SDS011;50936;51.660;5.616;2023-12-07T15:06:48;5.38;;;2.90;;
64543;SDS011;50936;51.660;5.616;2023-12-07T15:09:35;6.20;;;2.97;;
64543;SDS011;50936;51.660;5.616;2023-12-07T15:12:24;5.50;;;3.10;;
64543;SDS011;50936;51.660;5.616;2023-12-07T15:15:15;7.57;;;3.10;;
64543;SDS011;50936;51.660;5.616;2023-12-07T15:18:03;5.30;;;2.90;;
64543;SDS011;50936;51.660;5.616;2023-12-07T15:20:50;6.35;;;3.70;;
64543;SDS011;50936;51.660;5.616;2023-12-07T15:23:37;4.72;;;2.75;;
64543;SDS011;50936;51.660;5.616;2023-12-07T15:26:25;5.38;;;2.90;;
64543;SDS011;50936;51.660;5.616;2023-12-07T15:29:12;4.95;;;3.42;;
64543;SDS011;50936;51.660;5.616;2023-12-07T15:32:00;6.03;;;3.20;;
64543;SDS011;50936;51.660;5.616;2023-12-07T15:34:47;4.57;;;3.10;;
64543;SDS011;50936;51.660;5.616;2023-12-07T15:37:34;6.43;;;3.40;;
64543;SDS011;50936;51.660;5.616;2023-12-07T15:40:22;6.35;;;3.47;;
64543;SDS011;50936;51.660;5.616;2023-12-07T15:43:09;7.70;;;3.33;;
64543;SDS011;50936;51.660;5.616;2023-12-07T15:45:56;5.72;;;3.25;;
64543;SDS011;50936;51.660;5.616;2023-12-07T15:48:43;5.00;;;2.92;;
64543;SDS011;50936;51.660;5.616;2023-12-07T15:51:31;6.47;;;3.30;;
64543;SDS011;50936;51.660;5.616;2023-12-07T15:54:18;5.68;;;2.92;;
64543;SDS011;50936;51.660;5.616;2023-12-07T15:57:23;5.50;;;3.00;;
64543;SDS011;50936;51.660;5.616;2023-12-07T16:00:10;4.82;;;2.50;;
64543;SDS011;50936;51.660;5.616;2023-12-07T16:02:59;5.18;;;2.90;;
64543;SDS011;50936;51.660;5.616;2023-12-07T16:05:46;5.13;;;3.30;;
64543;SDS011;50936;51.660;5.616;2023-12-07T16:08:34;5.18;;;2.97;;
64543;SDS011;50936;51.660;5.616;2023-12-07T16:11:21;5.82;;;2.92;;
64543;SDS011;50936;51.660;5.616;2023-12-07T16:14:08;6.88;;;3.15;;
64543;SDS011;50936;51.660;5.616;2023-12-07T16:17:03;5.30;;;3.50;;
64543;SDS011;50936;51.660;5.616;2023-12-07T16:19:51;9.45;;;3.28;;
64543;SDS011;50936;51.660;5.616;2023-12-07T16:22:38;7.80;;;3.30;;
64543;SDS011;50936;51.660;5.616;2023-12-07T16:25:25;4.93;;;3.10;;
64543;SDS011;50936;51.660;5.616;2023-12-07T16:28:12;6.38;;;3.90;;
64543;SDS011;50936;51.660;5.616;2023-12-07T16:31:00;5.97;;;3.20;;
64543;SDS011;50936;51.660;5.616;2023-12-07T16:33:47;5.82;;;3.10;;
64543;SDS011;50936;51.660;5.616;2023-12-07T16:36:35;5.03;;;3.35;;
64543;SDS011;50936;51.660;5.616;2023-12-07T16:39:22;5.82;;;3.35;;
64543;SDS011;50936;51.660;5.616;2023-12-07T16:42:10;6.18;;;3.40;;
64543;SDS011;50936;51.660;5.616;2023-12-07T16:44:58;5.50;;;3.40;;
64543;SDS011;50936;51.660;5.616;2023-12-07T16:47:45;5.03;;;2.75;;
64543;SDS011;50936;51.660;5.616;2023-12-07T16:50:34;6.25;;;3.10;;
64543;SDS011;50936;51.660;5.616;2023-12-07T16:53:21;4.22;;;2.67;;
64543;SDS011;50936;51.660;5.616;2023-12-07T16:56:09;6.07;;;3.20;;